createdAt,value
2019-03-18T00:00:43.153Z,1.80
2019-03-18T00:03:15.113Z,1.40
2019-03-18T00:05:46.692Z,1.60
2019-03-18T00:08:20.141Z,1.47
2019-03-18T00:10:51.791Z,1.20
2019-03-18T00:13:23.480Z,1.50
2019-03-18T00:15:58.107Z,1.17
2019-03-18T00:18:30.182Z,1.20
2019-03-18T00:21:01.843Z,1.00
2019-03-18T00:23:33.552Z,1.23
2019-03-18T00:26:05.995Z,1.60
2019-03-18T00:28:38.032Z,1.30
2019-03-18T00:31:15.733Z,1.10
2019-03-18T00:33:47.543Z,1.30
2019-03-18T00:36:19.262Z,1.10
2019-03-18T00:38:51.292Z,1.50
2019-03-18T00:41:22.902Z,1.10
2019-03-18T00:43:54.552Z,1.27
2019-03-18T00:46:26.412Z,1.50
2019-03-18T00:48:58.253Z,1.20
2019-03-18T00:51:29.872Z,1.30
2019-03-18T00:54:01.951Z,1.30
2019-03-18T00:56:34.197Z,1.20
2019-03-18T00:59:06.033Z,1.33
2019-03-18T01:01:37.621Z,1.30
2019-03-18T01:04:09.312Z,1.27
2019-03-18T01:06:40.992Z,1.00
2019-03-18T01:09:13.112Z,1.40
2019-03-18T01:11:45.151Z,1.03
2019-03-18T01:14:16.942Z,0.90
2019-03-18T01:16:48.602Z,1.27
2019-03-18T01:19:20.572Z,1.30
2019-03-18T01:21:52.180Z,1.20
2019-03-18T01:24:23.872Z,1.10
2019-03-18T01:26:57.040Z,1.23
2019-03-18T01:29:29.112Z,1.20
2019-03-18T01:32:07.864Z,1.00
2019-03-18T01:34:39.712Z,1.30
2019-03-18T01:37:11.432Z,1.20
2019-03-18T01:39:43.582Z,1.20
2019-03-18T01:42:21.232Z,1.20
2019-03-18T01:44:53.402Z,1.20
2019-03-18T01:47:25.126Z,1.07
2019-03-18T01:49:56.872Z,1.00
2019-03-18T01:52:28.572Z,1.20
2019-03-18T01:55:00.633Z,1.10
2019-03-18T01:57:32.960Z,1.30
2019-03-18T02:00:06.532Z,1.23
2019-03-18T02:02:38.118Z,1.30
2019-03-18T02:05:10.812Z,0.97
2019-03-18T02:07:42.455Z,1.20
2019-03-18T02:10:14.801Z,1.07
2019-03-18T02:12:46.513Z,1.40
2019-03-18T02:15:18.282Z,1.30
2019-03-18T02:17:49.971Z,1.50
2019-03-18T02:20:21.742Z,1.33
2019-03-18T02:22:53.342Z,1.20
2019-03-18T02:25:25.201Z,1.60
2019-03-18T02:27:57.072Z,1.20
2019-03-18T02:30:29.121Z,1.20
2019-03-18T02:33:06.822Z,1.30
2019-03-18T02:35:38.503Z,1.67
2019-03-18T02:38:10.103Z,1.63
2019-03-18T02:40:41.801Z,1.83
2019-03-18T02:43:13.473Z,2.90
2019-03-18T02:45:45.277Z,3.80
2019-03-18T02:48:16.912Z,4.60
2019-03-18T02:50:48.684Z,6.27
2019-03-18T02:53:20.502Z,4.60
2019-03-18T02:55:52.194Z,4.50
2019-03-18T02:58:24.543Z,4.80
2019-03-18T03:00:56.313Z,5.27
2019-03-18T03:03:28.033Z,5.10
2019-03-18T03:05:59.713Z,4.30
2019-03-18T03:08:31.313Z,4.27
2019-03-18T03:11:02.984Z,4.10
2019-03-18T03:13:34.689Z,3.03
2019-03-18T03:16:06.825Z,3.33
2019-03-18T03:18:38.614Z,4.23
2019-03-18T03:21:10.273Z,3.33
2019-03-18T03:23:41.886Z,3.10
2019-03-18T03:26:13.972Z,2.67
2019-03-18T03:28:46.362Z,3.00
2019-03-18T03:31:18.092Z,2.80
2019-03-18T03:33:50.933Z,3.20
2019-03-18T03:36:22.756Z,2.77
2019-03-18T03:38:54.473Z,3.00
2019-03-18T03:41:26.563Z,2.93
2019-03-18T03:43:58.212Z,2.93
2019-03-18T03:46:42.304Z,3.17
2019-03-18T03:49:03.393Z,3.30
2019-03-18T03:51:35.172Z,3.30
2019-03-18T03:54:06.751Z,3.73
2019-03-18T03:56:38.553Z,4.50
2019-03-18T03:59:10.893Z,3.17
2019-03-18T04:01:42.592Z,3.67
2019-03-18T04:04:14.295Z,3.80
2019-03-18T04:06:45.919Z,3.60
2019-03-18T04:09:17.552Z,3.17
2019-03-18T04:11:49.752Z,4.10
2019-03-18T04:14:21.387Z,3.60
2019-03-18T04:17:01.751Z,3.90
2019-03-18T04:19:27.733Z,3.87
2019-03-18T04:21:59.424Z,3.63
2019-03-18T04:24:33.122Z,4.17
2019-03-18T04:27:04.863Z,4.07
2019-03-18T04:29:37.192Z,5.20
2019-03-18T04:32:08.971Z,5.30
2019-03-18T04:34:41.312Z,4.83
2019-03-18T04:37:13.392Z,5.50
2019-03-18T04:39:44.998Z,5.80
2019-03-18T04:42:16.871Z,5.10
2019-03-18T04:44:48.612Z,5.73
2019-03-18T04:47:20.918Z,5.17
2019-03-18T04:49:52.574Z,5.00
2019-03-18T04:52:24.425Z,5.13
2019-03-18T04:54:56.091Z,4.83
2019-03-18T04:57:28.092Z,5.60
2019-03-18T05:00:00.134Z,5.37
2019-03-18T05:02:32.454Z,6.53
2019-03-18T05:05:04.192Z,6.00
2019-03-18T05:07:35.982Z,5.87
2019-03-18T05:10:08.424Z,5.70
2019-03-18T05:12:41.373Z,5.43
2019-03-18T05:15:13.122Z,6.70
2019-03-18T05:17:45.031Z,6.30
2019-03-18T05:20:16.812Z,6.43
2019-03-18T05:22:48.562Z,5.90
2019-03-18T05:25:20.200Z,6.17
2019-03-18T05:27:51.852Z,5.50
2019-03-18T05:30:23.862Z,6.83
2019-03-18T05:32:55.711Z,6.00
2019-03-18T05:35:27.452Z,5.80
2019-03-18T05:37:59.148Z,5.67
2019-03-18T05:40:30.812Z,6.20
2019-03-18T05:43:02.482Z,6.77
2019-03-18T05:45:34.067Z,6.73
2019-03-18T05:48:05.831Z,5.60
2019-03-18T05:50:37.543Z,6.27
2019-03-18T05:53:09.452Z,6.60
2019-03-18T05:55:41.152Z,6.70
2019-03-18T05:58:12.882Z,6.93
2019-03-18T06:00:45.373Z,6.67
2019-03-18T06:03:17.442Z,6.00
2019-03-18T06:05:50.342Z,6.90
2019-03-18T06:08:22.172Z,6.87
2019-03-18T06:10:56.232Z,6.47
2019-03-18T06:13:28.012Z,6.37
2019-03-18T06:15:59.655Z,6.20
2019-03-18T06:18:31.585Z,6.27
2019-03-18T06:21:03.302Z,6.70
2019-03-18T06:23:36.032Z,6.23
2019-03-18T06:26:07.814Z,5.90
2019-03-18T06:28:39.552Z,5.83
2019-03-18T06:31:11.553Z,6.23
2019-03-18T06:33:43.311Z,6.60
2019-03-18T06:36:20.852Z,6.03
2019-03-18T06:38:52.792Z,6.57
2019-03-18T06:41:24.471Z,6.40
2019-03-18T06:43:56.297Z,6.03
2019-03-18T06:46:27.973Z,5.77
2019-03-18T06:49:02.002Z,6.20
2019-03-18T06:51:35.113Z,5.87
2019-03-18T06:54:06.852Z,6.20
2019-03-18T06:56:38.459Z,5.97
2019-03-18T06:59:10.153Z,6.27
2019-03-18T07:01:42.131Z,6.50
2019-03-18T07:04:13.832Z,6.03
2019-03-18T07:06:45.422Z,5.50
2019-03-18T07:09:17.212Z,5.80
2019-03-18T07:11:48.972Z,5.30
2019-03-18T07:14:20.792Z,5.23
2019-03-18T07:16:52.372Z,5.90
2019-03-18T07:19:24.434Z,5.73
2019-03-18T07:21:56.163Z,5.60
2019-03-18T07:24:27.900Z,5.50
2019-03-18T07:26:59.472Z,4.83
2019-03-18T07:29:31.172Z,5.33
2019-03-18T07:32:03.452Z,4.77
2019-03-18T07:34:36.182Z,4.87
2019-03-18T07:37:09.252Z,5.27
2019-03-18T07:39:41.470Z,4.83
2019-03-18T07:42:13.132Z,5.33
2019-03-18T07:44:44.872Z,5.20
2019-03-18T07:47:16.551Z,5.27
2019-03-18T07:49:48.757Z,5.40
2019-03-18T07:52:21.885Z,5.57
2019-03-18T07:54:54.053Z,5.50
2019-03-18T07:57:26.750Z,5.23
2019-03-18T07:59:58.413Z,4.73
2019-03-18T08:02:30.362Z,4.60
2019-03-18T08:05:02.353Z,4.73
2019-03-18T08:07:34.072Z,4.97
2019-03-18T08:10:07.245Z,4.70
2019-03-18T08:12:38.812Z,5.33
2019-03-18T08:15:10.772Z,5.53
2019-03-18T08:17:42.372Z,4.90
2019-03-18T08:20:14.046Z,4.43
2019-03-18T08:22:45.652Z,4.83
2019-03-18T08:25:17.390Z,4.80
2019-03-18T08:27:49.112Z,4.37
2019-03-18T08:30:20.854Z,4.57
2019-03-18T08:32:52.832Z,4.10
2019-03-18T08:35:24.512Z,4.27
2019-03-18T08:38:02.094Z,4.30
2019-03-18T08:40:33.833Z,4.63
2019-03-18T08:43:05.412Z,4.40
2019-03-18T08:45:37.202Z,4.40
2019-03-18T08:48:08.852Z,4.27
2019-03-18T08:50:40.513Z,4.07
2019-03-18T08:53:21.302Z,4.00
2019-03-18T08:55:52.992Z,4.00
2019-03-18T08:58:24.745Z,3.93
2019-03-18T09:00:56.460Z,3.87
2019-03-18T09:03:28.435Z,4.37
2019-03-18T09:06:00.241Z,3.43
2019-03-18T09:08:31.935Z,3.47
2019-03-18T09:11:03.613Z,2.67
2019-03-18T09:13:35.332Z,2.60
2019-03-18T09:16:07.053Z,2.93
2019-03-18T09:18:38.675Z,3.30
2019-03-18T09:21:10.482Z,2.83
2019-03-18T09:23:42.143Z,2.73
2019-03-18T09:26:13.900Z,2.73
2019-03-18T09:28:46.572Z,3.20
2019-03-18T09:31:18.370Z,2.73
2019-03-18T09:33:50.432Z,2.17
2019-03-18T09:36:22.144Z,2.53
2019-03-18T09:39:00.512Z,2.73
2019-03-18T09:41:32.632Z,3.17
2019-03-18T09:44:04.272Z,2.10
2019-03-18T09:46:36.193Z,2.00
2019-03-18T09:49:20.646Z,2.33
2019-03-18T09:51:42.292Z,2.20
2019-03-18T09:54:13.928Z,2.47
2019-03-18T09:56:45.694Z,2.57
2019-03-18T09:59:17.292Z,2.33
2019-03-18T10:01:49.190Z,2.43
2019-03-18T10:04:21.282Z,2.83
2019-03-18T10:06:53.053Z,2.83
2019-03-18T10:09:24.642Z,2.87
2019-03-18T10:11:56.323Z,3.00
2019-03-18T10:14:27.912Z,2.90
2019-03-18T10:17:09.118Z,2.40
2019-03-18T10:19:33.891Z,2.67
2019-03-18T10:22:06.122Z,2.97
2019-03-18T10:24:37.792Z,2.83
2019-03-18T10:27:09.574Z,3.27
2019-03-18T10:29:41.260Z,2.80
2019-03-18T10:32:12.932Z,2.90
2019-03-18T10:34:45.062Z,3.27
2019-03-18T10:37:16.712Z,3.17
2019-03-18T10:39:52.202Z,3.37
2019-03-18T10:42:24.033Z,3.37
2019-03-18T10:44:55.662Z,2.93
2019-03-18T10:47:27.342Z,9.43
2019-03-18T10:49:59.072Z,36.47
2019-03-18T10:52:30.808Z,6.90
2019-03-18T10:55:08.909Z,7.00
2019-03-18T10:57:40.702Z,17.30
2019-03-18T11:00:13.063Z,26.17
2019-03-18T11:02:45.528Z,6.53
2019-03-18T11:05:17.814Z,30.33
2019-03-18T11:07:51.895Z,6.40
2019-03-18T11:10:23.342Z,2.93
2019-03-18T11:12:55.112Z,2.27
2019-03-18T11:15:26.702Z,12.33
2019-03-18T11:17:58.593Z,6.03
2019-03-18T11:20:30.512Z,4.87
2019-03-18T11:23:02.234Z,7.10
2019-03-18T11:25:33.882Z,39.70
2019-03-18T11:28:05.555Z,2.80
2019-03-18T11:30:37.422Z,7.13
2019-03-18T11:33:10.412Z,10.90
2019-03-18T11:35:42.597Z,8.33
2019-03-18T11:38:14.426Z,13.40
2019-03-18T11:40:52.022Z,7.53
2019-03-18T11:43:23.962Z,9.27
2019-03-18T11:45:55.623Z,3.20
2019-03-18T11:48:29.327Z,3.13
2019-03-18T11:51:00.992Z,2.90
2019-03-18T11:53:34.092Z,8.03
2019-03-18T11:56:05.762Z,3.73
2019-03-18T11:58:37.502Z,4.40
2019-03-18T12:01:09.112Z,14.43
2019-03-18T12:03:40.851Z,4.80
2019-03-18T12:06:13.032Z,8.93
2019-03-18T12:08:44.782Z,5.77
2019-03-18T12:11:16.349Z,3.40
2019-03-18T12:13:47.982Z,3.83
2019-03-18T12:16:19.652Z,5.00
2019-03-18T12:18:51.285Z,6.40
2019-03-18T12:21:22.885Z,4.27
2019-03-18T12:23:54.882Z,3.77
2019-03-18T12:26:26.672Z,3.90
2019-03-18T12:28:58.332Z,3.67
2019-03-18T12:31:29.917Z,3.20
2019-03-18T12:34:02.011Z,3.60
2019-03-18T12:36:34.083Z,3.30
2019-03-18T12:39:06.047Z,3.00
2019-03-18T12:41:43.586Z,3.07
2019-03-18T12:44:15.400Z,2.77
2019-03-18T12:46:47.043Z,3.10
2019-03-18T12:49:18.753Z,3.10
2019-03-18T12:51:50.482Z,2.83
2019-03-18T12:54:23.411Z,2.60
2019-03-18T12:56:55.112Z,3.83
2019-03-18T12:59:26.754Z,2.93
2019-03-18T13:01:58.412Z,3.97
2019-03-18T13:04:30.121Z,3.50
2019-03-18T13:07:02.243Z,3.30
2019-03-18T13:09:33.977Z,3.60
2019-03-18T13:12:05.731Z,3.43
2019-03-18T13:14:37.555Z,3.30
2019-03-18T13:17:09.182Z,3.30
2019-03-18T13:19:42.067Z,3.00
2019-03-18T13:22:13.732Z,3.30
2019-03-18T13:24:45.592Z,3.07
2019-03-18T13:27:17.315Z,2.90
2019-03-18T13:29:49.106Z,2.50
2019-03-18T13:32:20.773Z,2.77
2019-03-18T13:34:56.092Z,3.60
2019-03-18T13:37:28.092Z,3.30
2019-03-18T13:39:59.783Z,3.07
2019-03-18T13:42:32.782Z,2.50
2019-03-18T13:45:06.458Z,2.23
2019-03-18T13:47:38.002Z,2.07
2019-03-18T13:50:14.507Z,2.10
2019-03-18T13:52:46.141Z,2.10
2019-03-18T13:55:17.930Z,2.17
2019-03-18T13:57:49.522Z,2.30
2019-03-18T14:00:21.364Z,1.90
2019-03-18T14:02:52.979Z,2.43
2019-03-18T14:05:24.914Z,2.10
2019-03-18T14:08:00.718Z,2.13
2019-03-18T14:10:34.323Z,2.60
2019-03-18T14:13:06.044Z,2.80
2019-03-18T14:15:44.220Z,2.90
2019-03-18T14:18:15.847Z,2.60
2019-03-18T14:20:47.545Z,2.50
2019-03-18T14:23:19.083Z,3.50
2019-03-18T14:25:50.773Z,3.10
2019-03-18T14:28:22.588Z,4.00
2019-03-18T14:30:54.392Z,3.23
2019-03-18T14:33:26.042Z,2.80
2019-03-18T14:35:58.003Z,2.67
2019-03-18T14:38:29.965Z,3.63
2019-03-18T14:41:01.897Z,2.93
2019-03-18T14:43:33.638Z,3.37
2019-03-18T14:46:05.407Z,2.30
2019-03-18T14:48:39.022Z,3.03
2019-03-18T14:51:11.554Z,2.43
2019-03-18T14:53:43.156Z,2.60
2019-03-18T14:56:14.983Z,2.60
2019-03-18T14:58:46.732Z,2.87
2019-03-18T15:01:18.999Z,2.20
2019-03-18T15:03:50.663Z,2.00
2019-03-18T15:06:22.348Z,2.60
2019-03-18T15:08:54.288Z,2.40
2019-03-18T15:11:26.113Z,2.00
2019-03-18T15:13:57.773Z,1.90
2019-03-18T15:16:30.303Z,1.90
2019-03-18T15:19:01.913Z,1.80
2019-03-18T15:21:33.873Z,2.30
2019-03-18T15:24:16.526Z,2.10
2019-03-18T15:26:39.114Z,2.30
2019-03-18T15:29:10.852Z,1.83
2019-03-18T15:31:42.593Z,2.30
2019-03-18T15:34:14.393Z,1.93
2019-03-18T15:36:46.203Z,2.30
2019-03-18T15:39:18.286Z,2.10
2019-03-18T15:41:49.946Z,2.50
2019-03-18T15:44:21.613Z,2.67
2019-03-18T15:46:53.335Z,2.00
2019-03-18T15:49:24.923Z,2.30
2019-03-18T15:51:56.633Z,1.87
2019-03-18T15:54:28.292Z,2.00
2019-03-18T15:57:00.393Z,2.07
2019-03-18T15:59:32.169Z,2.07
2019-03-18T16:02:04.217Z,1.73
2019-03-18T16:04:36.786Z,1.93
2019-03-18T16:07:08.975Z,2.10
2019-03-18T16:09:40.980Z,2.20
2019-03-18T16:12:12.773Z,2.10
2019-03-18T16:14:44.632Z,1.73
2019-03-18T16:17:17.855Z,1.97
2019-03-18T16:19:49.587Z,1.80
2019-03-18T16:22:23.785Z,2.20
2019-03-18T16:24:54.793Z,2.70
2019-03-18T16:27:26.931Z,2.27
2019-03-18T16:29:59.122Z,2.20
2019-03-18T16:32:30.897Z,2.43
2019-03-18T16:35:02.591Z,2.10
2019-03-18T16:37:34.375Z,2.07
2019-03-18T16:40:08.223Z,2.63
2019-03-18T16:42:40.193Z,2.40
2019-03-18T16:45:13.702Z,2.10
2019-03-18T16:47:45.423Z,2.30
2019-03-18T16:50:28.413Z,2.13
2019-03-18T16:53:00.186Z,2.40
2019-03-18T16:55:32.374Z,2.67
2019-03-18T16:58:04.472Z,2.43
2019-03-18T17:00:37.395Z,2.50
2019-03-18T17:03:09.223Z,2.37
2019-03-18T17:05:40.872Z,3.70
2019-03-18T17:08:13.053Z,3.50
2019-03-18T17:10:45.034Z,2.80
2019-03-18T17:13:20.633Z,3.67
2019-03-18T17:15:52.353Z,4.40
2019-03-18T17:18:30.421Z,3.40
2019-03-18T17:21:02.065Z,2.93
2019-03-18T17:23:33.893Z,2.77
2019-03-18T17:26:05.554Z,2.60
2019-03-18T17:28:37.672Z,2.67
2019-03-18T17:31:09.392Z,3.03
2019-03-18T17:33:41.282Z,2.83
2019-03-18T17:36:13.059Z,3.00
2019-03-18T17:38:44.849Z,3.73
2019-03-18T17:41:17.512Z,3.23
2019-03-18T17:43:49.312Z,4.50
2019-03-18T17:46:23.931Z,4.30
2019-03-18T17:48:59.653Z,5.43
2019-03-18T17:51:33.428Z,5.57
2019-03-18T17:54:06.022Z,6.67
2019-03-18T17:56:38.663Z,8.05
2019-03-18T17:59:10.843Z,12.57
2019-03-18T18:01:46.622Z,10.27
2019-03-18T18:04:18.599Z,9.90
2019-03-18T18:06:50.322Z,10.77
2019-03-18T18:09:22.097Z,11.53
2019-03-18T18:12:04.204Z,10.43
2019-03-18T18:14:35.932Z,7.55
2019-03-18T18:17:13.572Z,9.10
2019-03-18T18:19:50.612Z,8.57
2019-03-18T18:22:22.262Z,9.00
2019-03-18T18:24:54.097Z,8.43
2019-03-18T18:27:25.796Z,6.37
2019-03-18T18:29:57.512Z,6.93
2019-03-18T18:32:29.152Z,6.83
2019-03-18T18:35:01.220Z,9.80
2019-03-18T18:37:33.912Z,7.90
2019-03-18T18:40:07.380Z,7.97
2019-03-18T18:42:39.422Z,7.70
2019-03-18T18:45:12.697Z,7.90
2019-03-18T18:47:44.302Z,7.47
2019-03-18T18:50:15.991Z,7.00
2019-03-18T18:52:47.844Z,7.47
2019-03-18T18:55:19.916Z,9.83
2019-03-18T18:57:51.662Z,10.30
2019-03-18T19:00:23.332Z,8.80
2019-03-18T19:02:54.953Z,9.00
2019-03-18T19:05:32.643Z,9.40
2019-03-18T19:08:07.213Z,11.83
2019-03-18T19:10:39.002Z,12.63
2019-03-18T19:13:11.212Z,11.57
2019-03-18T19:15:43.121Z,13.33
2019-03-18T19:18:14.833Z,14.17
2019-03-18T19:20:49.357Z,13.27
2019-03-18T19:23:20.992Z,10.23
2019-03-18T19:25:52.702Z,10.57
2019-03-18T19:28:30.426Z,10.80
2019-03-18T19:31:02.247Z,10.83
2019-03-18T19:33:33.952Z,9.70
2019-03-18T19:36:09.312Z,10.68
2019-03-18T19:38:41.052Z,10.47
2019-03-18T19:41:16.873Z,10.43
2019-03-18T19:43:48.932Z,11.90
2019-03-18T19:46:20.874Z,10.57
2019-03-18T19:48:52.770Z,10.60
2019-03-18T19:51:24.542Z,10.30
2019-03-18T19:53:56.113Z,11.50
2019-03-18T19:56:27.800Z,9.40
2019-03-18T19:58:59.512Z,9.33
2019-03-18T20:01:31.212Z,9.20
2019-03-18T20:04:08.792Z,8.17
2019-03-18T20:06:40.595Z,8.20
2019-03-18T20:09:12.340Z,7.97
2019-03-18T20:11:44.232Z,10.27
2019-03-18T20:14:16.472Z,10.43
2019-03-18T20:16:48.632Z,10.73
2019-03-18T20:19:20.362Z,12.20
2019-03-18T20:21:58.593Z,12.13
2019-03-18T20:24:30.322Z,12.00
2019-03-18T20:27:01.962Z,13.00
2019-03-18T20:29:33.613Z,10.53
2019-03-18T20:32:06.113Z,10.03
2019-03-18T20:34:37.752Z,9.20
2019-03-18T20:37:09.471Z,9.30
2019-03-18T20:39:41.173Z,8.53
2019-03-18T20:42:12.832Z,9.37
2019-03-18T20:44:46.043Z,7.97
2019-03-18T20:47:18.004Z,9.50
2019-03-18T20:49:49.612Z,9.17
2019-03-18T20:52:21.432Z,9.10
2019-03-18T20:54:53.102Z,8.13
2019-03-18T20:57:24.860Z,10.00
2019-03-18T20:59:56.512Z,8.90
2019-03-18T21:02:28.172Z,8.90
2019-03-18T21:04:59.813Z,8.13
2019-03-18T21:07:31.592Z,8.50
2019-03-18T21:10:04.262Z,9.37
2019-03-18T21:12:36.072Z,11.37
2019-03-18T21:15:09.072Z,12.27
2019-03-18T21:17:40.912Z,12.50
2019-03-18T21:20:14.343Z,11.87
2019-03-18T21:22:51.983Z,11.93
2019-03-18T21:25:23.571Z,17.80
2019-03-18T21:27:55.692Z,15.57
2019-03-18T21:30:27.354Z,12.50
2019-03-18T21:32:59.533Z,11.40
2019-03-18T21:35:31.192Z,11.47
2019-03-18T21:38:02.922Z,12.20
2019-03-18T21:40:34.512Z,9.30
2019-03-18T21:43:06.625Z,10.13
2019-03-18T21:45:39.040Z,10.43
2019-03-18T21:48:11.192Z,10.23
2019-03-18T21:50:42.805Z,8.90
2019-03-18T21:53:14.619Z,10.40
2019-03-18T21:55:49.411Z,9.80
2019-03-18T21:58:21.192Z,10.27
2019-03-18T22:00:52.900Z,10.63
2019-03-18T22:03:24.732Z,9.83
2019-03-18T22:05:56.352Z,9.50
2019-03-18T22:08:28.412Z,8.20
2019-03-18T22:11:01.082Z,8.93
2019-03-18T22:13:32.792Z,9.67
2019-03-18T22:16:04.919Z,8.97
2019-03-18T22:18:36.802Z,9.40
2019-03-18T22:21:08.560Z,8.07
2019-03-18T22:23:40.622Z,9.03
2019-03-18T22:26:12.353Z,9.70
2019-03-18T22:28:44.762Z,9.10
2019-03-18T22:31:16.652Z,7.77
2019-03-18T22:33:48.492Z,8.17
2019-03-18T22:36:20.255Z,9.13
2019-03-18T22:38:51.972Z,7.67
2019-03-18T22:41:23.772Z,8.17
2019-03-18T22:43:55.520Z,7.43
2019-03-18T22:46:27.692Z,6.67
2019-03-18T22:48:59.670Z,7.90
2019-03-18T22:51:31.432Z,7.73
2019-03-18T22:54:03.392Z,8.00
2019-03-18T22:56:35.129Z,8.77
2019-03-18T22:59:08.854Z,8.67
2019-03-18T23:01:40.772Z,8.97
2019-03-18T23:04:12.693Z,8.13
2019-03-18T23:06:46.432Z,9.23
2019-03-18T23:09:18.353Z,9.50
2019-03-18T23:11:50.127Z,10.07
2019-03-18T23:14:21.792Z,8.80
2019-03-18T23:16:54.242Z,9.37
2019-03-18T23:19:26.294Z,8.40
2019-03-18T23:21:58.062Z,9.03
2019-03-18T23:24:30.760Z,8.87
2019-03-18T23:27:02.583Z,8.90
2019-03-18T23:29:34.295Z,9.60
2019-03-18T23:32:06.114Z,9.23
2019-03-18T23:34:38.012Z,9.43
2019-03-18T23:37:09.732Z,9.43
2019-03-18T23:39:41.672Z,8.77
2019-03-18T23:42:13.453Z,9.03
2019-03-18T23:44:45.491Z,10.00
2019-03-18T23:47:17.790Z,12.27
2019-03-18T23:49:49.903Z,9.73
2019-03-18T23:52:21.552Z,9.67
2019-03-18T23:54:54.412Z,8.90
2019-03-18T23:57:26.072Z,9.20
2019-03-18T23:59:57.860Z,8.10
